createdAt,value
2018-03-24T00:01:04.589Z,10.92
2018-03-24T00:03:32.349Z,10.88
2018-03-24T00:05:59.821Z,10.90
2018-03-24T00:08:27.274Z,11.17
2018-03-24T00:10:55.030Z,11.09
2018-03-24T00:13:22.500Z,10.91
2018-03-24T00:15:49.956Z,11.01
2018-03-24T00:18:17.721Z,11.19
2018-03-24T00:20:45.872Z,11.28
2018-03-24T00:23:13.329Z,11.40
2018-03-24T00:25:40.902Z,11.27
2018-03-24T00:28:08.367Z,11.41
2018-03-24T00:30:35.846Z,10.74
2018-03-24T00:33:03.569Z,10.39
2018-03-24T00:35:31.032Z,10.01
2018-03-24T00:37:58.505Z,10.12
2018-03-24T00:40:26.400Z,10.19
2018-03-24T00:42:53.857Z,10.20
2018-03-24T00:45:21.326Z,10.42
2018-03-24T00:47:49.080Z,10.19
2018-03-24T00:50:16.554Z,10.71
2018-03-24T00:52:44.038Z,10.41
2018-03-24T00:55:11.768Z,10.32
2018-03-24T00:57:39.237Z,10.34
2018-03-24T01:00:06.696Z,10.25
2018-03-24T01:02:34.761Z,10.01
2018-03-24T01:05:02.219Z,10.01
2018-03-24T01:07:29.681Z,10.01
2018-03-24T01:09:57.450Z,10.31
2018-03-24T01:12:24.913Z,10.67
2018-03-24T01:14:52.381Z,11.00
2018-03-24T01:17:20.134Z,10.77
2018-03-24T01:19:47.603Z,10.83
2018-03-24T01:22:16.667Z,10.76
2018-03-24T01:24:44.662Z,10.66
2018-03-24T01:27:12.125Z,10.41
2018-03-24T01:29:39.598Z,10.67
2018-03-24T01:32:07.354Z,10.94
2018-03-24T01:34:34.823Z,10.82
2018-03-24T01:37:02.292Z,10.79
2018-03-24T01:39:30.043Z,10.95
2018-03-24T01:41:57.545Z,10.86
2018-03-24T01:44:25.010Z,10.75
2018-03-24T01:46:52.887Z,11.01
2018-03-24T01:49:20.354Z,10.72
2018-03-24T01:51:47.808Z,10.44
2018-03-24T01:54:15.719Z,10.71
2018-03-24T01:56:43.188Z,10.31
2018-03-24T01:59:10.642Z,10.49
2018-03-24T02:01:38.374Z,10.43
2018-03-24T02:04:05.842Z,10.39
2018-03-24T02:06:33.306Z,10.39
2018-03-24T02:09:01.089Z,10.67
2018-03-24T02:11:28.556Z,10.40
2018-03-24T02:13:56.030Z,10.63
2018-03-24T02:16:23.786Z,10.62
2018-03-24T02:18:51.249Z,10.84
2018-03-24T02:21:20.403Z,10.98
2018-03-24T02:23:48.886Z,10.59
2018-03-24T02:26:16.341Z,10.39
2018-03-24T02:28:43.802Z,10.65
2018-03-24T02:31:11.614Z,10.40
2018-03-24T02:33:39.077Z,10.32
2018-03-24T02:36:06.551Z,10.66
2018-03-24T02:38:34.600Z,10.36
2018-03-24T02:41:02.159Z,10.48
2018-03-24T02:43:29.626Z,10.65
2018-03-24T02:45:57.305Z,10.26
2018-03-24T02:48:24.829Z,10.38
2018-03-24T02:50:52.285Z,10.05
2018-03-24T02:53:19.982Z,10.38
2018-03-24T02:55:47.451Z,10.47
2018-03-24T02:58:14.917Z,10.57
2018-03-24T03:00:42.669Z,10.59
2018-03-24T03:03:10.130Z,10.30
2018-03-24T03:05:37.590Z,10.40
2018-03-24T03:11:03.179Z,10.63
2018-03-24T03:13:30.839Z,10.38
2018-03-24T03:15:58.296Z,9.94
2018-03-24T03:18:25.764Z,10.06
2018-03-24T03:20:53.389Z,9.96
2018-03-24T03:23:20.860Z,9.74
2018-03-24T03:25:48.669Z,9.70
2018-03-24T03:28:16.686Z,9.74
2018-03-24T03:33:48.164Z,9.88
2018-03-24T03:36:15.628Z,10.02
2018-03-24T03:38:43.105Z,9.93
2018-03-24T03:41:10.851Z,10.04
2018-03-24T03:43:38.309Z,9.97
2018-03-24T03:46:05.773Z,10.00
2018-03-24T03:48:33.533Z,10.18
2018-03-24T03:51:00.993Z,9.95
2018-03-24T03:53:28.455Z,9.62
2018-03-24T03:55:56.222Z,9.45
2018-03-24T03:58:23.684Z,9.64
2018-03-24T04:00:51.138Z,9.67
2018-03-24T04:03:18.889Z,9.67
2018-03-24T04:05:46.344Z,9.99
2018-03-24T04:08:13.800Z,9.72
2018-03-24T04:10:41.577Z,9.64
2018-03-24T04:13:09.073Z,9.92
2018-03-24T04:15:36.525Z,9.99
2018-03-24T04:18:04.280Z,9.74
2018-03-24T04:20:31.752Z,9.87
2018-03-24T04:22:59.214Z,9.81
2018-03-24T04:25:26.960Z,10.50
2018-03-24T04:27:54.810Z,10.68
2018-03-24T04:30:22.474Z,10.58
2018-03-24T04:32:50.264Z,10.76
2018-03-24T04:35:17.745Z,10.55
2018-03-24T04:37:45.215Z,10.80
2018-03-24T04:40:13.004Z,11.19
2018-03-24T04:42:40.473Z,11.06
2018-03-24T04:45:07.929Z,11.00
2018-03-24T04:47:35.529Z,11.15
2018-03-24T04:50:02.994Z,10.69
2018-03-24T04:52:30.464Z,10.61
2018-03-24T04:54:58.339Z,10.54
2018-03-24T04:57:25.798Z,10.83
2018-03-24T04:59:53.266Z,10.39
2018-03-24T05:02:21.325Z,10.72
2018-03-24T05:04:49.758Z,10.57
2018-03-24T05:07:17.227Z,11.07
2018-03-24T05:09:44.978Z,10.93
2018-03-24T05:12:12.441Z,10.93
2018-03-24T05:14:39.916Z,11.37
2018-03-24T05:17:07.629Z,11.66
2018-03-24T05:19:35.085Z,11.21
2018-03-24T05:22:02.547Z,10.74
2018-03-24T05:24:30.183Z,10.80
2018-03-24T05:26:57.634Z,10.96
2018-03-24T05:29:25.634Z,11.16
2018-03-24T05:31:53.309Z,10.98
2018-03-24T05:34:20.776Z,10.71
2018-03-24T05:36:48.994Z,10.88
2018-03-24T05:39:16.830Z,10.53
2018-03-24T05:41:44.721Z,11.03
2018-03-24T05:44:12.182Z,11.17
2018-03-24T05:46:39.913Z,10.89
2018-03-24T05:49:07.373Z,10.56
2018-03-24T05:51:34.830Z,10.67
2018-03-24T05:54:02.593Z,10.49
2018-03-24T05:56:30.066Z,10.81
2018-03-24T05:58:57.533Z,10.49
2018-03-24T06:01:25.277Z,10.47
2018-03-24T06:03:52.745Z,10.82
2018-03-24T06:06:20.206Z,11.19
2018-03-24T06:08:48.268Z,11.65
2018-03-24T06:11:15.740Z,10.92
2018-03-24T06:13:43.201Z,10.55
2018-03-24T06:16:10.935Z,11.24
2018-03-24T06:18:38.397Z,11.62
2018-03-24T06:21:05.856Z,11.54
2018-03-24T06:23:33.962Z,11.37
2018-03-24T06:26:01.456Z,12.10
2018-03-24T06:28:28.934Z,11.39
2018-03-24T06:31:00.704Z,12.00
2018-03-24T06:33:28.250Z,11.38
2018-03-24T06:35:55.746Z,-142.99
2018-03-24T06:38:23.482Z,-142.99
2018-03-24T06:40:50.967Z,-142.99
2018-03-24T06:43:18.791Z,-142.99
2018-03-24T06:45:46.522Z,-142.99
2018-03-24T06:48:14.107Z,-142.99
2018-03-24T06:50:41.894Z,-142.99
2018-03-24T06:53:09.625Z,-142.99
2018-03-24T06:55:37.102Z,-142.99
2018-03-24T06:58:04.586Z,-142.99
2018-03-24T07:00:32.321Z,-142.99
2018-03-24T07:02:59.813Z,-142.99
2018-03-24T07:05:27.290Z,-142.99
2018-03-24T07:07:55.140Z,-142.99
2018-03-24T07:10:22.622Z,-142.99
2018-03-24T07:12:50.110Z,-142.99
2018-03-24T07:15:17.990Z,-142.99
2018-03-24T07:17:45.471Z,-142.99
2018-03-24T07:20:12.952Z,-142.99
2018-03-24T07:22:40.790Z,-142.99
2018-03-24T07:25:08.281Z,-142.99
2018-03-24T07:27:35.809Z,-142.99
2018-03-24T07:30:03.673Z,-142.99
2018-03-24T07:32:31.212Z,-142.99
2018-03-24T07:34:58.701Z,-142.99
2018-03-24T07:37:26.661Z,-142.99
2018-03-24T07:39:54.141Z,-142.99
2018-03-24T07:42:21.620Z,-142.99
2018-03-24T07:44:50.287Z,-142.99
2018-03-24T07:47:17.978Z,-142.99
2018-03-24T07:49:45.469Z,-142.99
2018-03-24T07:52:13.257Z,-142.99
2018-03-24T07:54:40.734Z,-142.99
2018-03-24T07:57:08.219Z,-142.99
2018-03-24T07:59:36.045Z,-142.99
2018-03-24T08:02:03.552Z,-142.99
2018-03-24T08:04:31.038Z,-142.99
2018-03-24T08:06:58.955Z,-142.99
2018-03-24T08:09:26.430Z,-142.99
2018-03-24T08:11:53.916Z,-142.99
2018-03-24T08:14:21.963Z,-142.99
2018-03-24T08:16:49.503Z,-142.99
2018-03-24T08:19:16.942Z,-142.99
2018-03-24T08:21:44.630Z,-142.99
2018-03-24T08:24:12.123Z,-142.99
2018-03-24T08:26:39.602Z,-142.99
2018-03-24T08:29:07.680Z,-142.99
2018-03-24T08:31:35.123Z,-142.99
2018-03-24T08:34:03.855Z,-142.99
2018-03-24T08:36:31.862Z,-142.99
2018-03-24T08:38:59.343Z,-142.99
2018-03-24T08:41:26.824Z,-142.99
2018-03-24T08:43:54.532Z,-142.99
2018-03-24T08:46:22.012Z,-142.99
2018-03-24T08:48:49.496Z,-142.99
2018-03-24T08:51:17.347Z,-142.99
2018-03-24T08:53:44.837Z,-142.99
2018-03-24T08:56:12.317Z,-142.99
2018-03-24T08:58:40.525Z,-142.99
2018-03-24T09:01:08.014Z,-142.99
2018-03-24T09:03:35.506Z,-142.99
2018-03-24T09:06:03.220Z,-142.99
2018-03-24T09:11:12.304Z,16.43
2018-03-24T09:13:39.764Z,15.57
2018-03-24T09:16:07.541Z,14.53
2018-03-24T09:18:35.258Z,15.20
2018-03-24T09:21:02.725Z,14.56
2018-03-24T09:23:30.204Z,15.23
2018-03-24T09:25:57.946Z,15.66
2018-03-24T09:28:25.397Z,15.29
2018-03-24T09:30:52.985Z,15.49
2018-03-24T09:33:20.932Z,15.54
2018-03-24T09:35:48.781Z,15.36
2018-03-24T09:38:16.252Z,15.18
2018-03-24T09:40:44.229Z,15.32
2018-03-24T09:43:11.705Z,14.94
2018-03-24T09:45:39.181Z,15.97
2018-03-24T09:48:06.917Z,14.83
2018-03-24T09:50:34.377Z,14.94
2018-03-24T09:53:01.852Z,15.75
2018-03-24T09:55:29.577Z,17.23
2018-03-24T09:57:57.050Z,16.42
2018-03-24T10:00:24.520Z,15.32
2018-03-24T10:02:52.290Z,15.88
2018-03-24T10:05:19.805Z,16.55
2018-03-24T10:07:47.241Z,16.21
2018-03-24T10:10:15.042Z,16.41
2018-03-24T10:12:42.516Z,16.48
2018-03-24T10:15:09.984Z,16.78
2018-03-24T10:17:37.987Z,16.95
2018-03-24T10:20:05.448Z,16.37
2018-03-24T10:22:39.044Z,16.19
2018-03-24T10:25:06.509Z,15.83
2018-03-24T10:27:33.970Z,17.13
2018-03-24T10:30:01.681Z,17.67
2018-03-24T10:32:34.109Z,17.44
2018-03-24T10:35:09.546Z,17.84
2018-03-24T10:37:43.172Z,18.51
2018-03-24T10:40:10.927Z,18.41
2018-03-24T10:42:38.398Z,15.77
2018-03-24T10:45:05.869Z,15.32
2018-03-24T10:47:33.514Z,17.14
2018-03-24T10:50:00.982Z,16.83
2018-03-24T10:52:28.464Z,16.07
2018-03-24T10:54:56.292Z,16.76
2018-03-24T10:57:23.761Z,16.77
2018-03-24T10:59:51.634Z,16.94
2018-03-24T11:02:19.647Z,16.48
2018-03-24T11:04:47.110Z,16.04
2018-03-24T11:07:14.608Z,16.89
2018-03-24T11:09:42.342Z,16.15
2018-03-24T11:12:09.810Z,17.42
2018-03-24T11:14:37.273Z,16.93
2018-03-24T11:17:05.299Z,15.88
2018-03-24T11:19:32.773Z,17.49
2018-03-24T11:22:00.265Z,17.74
2018-03-24T11:24:28.277Z,17.13
2018-03-24T11:26:55.750Z,17.47
2018-03-24T11:29:23.205Z,17.56
2018-03-24T11:31:51.268Z,17.24
2018-03-24T11:34:18.739Z,19.34
2018-03-24T11:36:46.213Z,17.53
2018-03-24T11:39:14.154Z,18.82
2018-03-24T11:41:41.613Z,19.51
2018-03-24T11:44:09.085Z,19.78
2018-03-24T11:46:36.967Z,19.64
2018-03-24T11:49:04.439Z,17.92
2018-03-24T11:51:31.897Z,18.21
2018-03-24T11:53:59.641Z,20.20
2018-03-24T11:56:27.133Z,19.00
2018-03-24T11:58:54.609Z,21.50
2018-03-24T12:01:22.934Z,20.20
2018-03-24T12:03:50.456Z,19.44
2018-03-24T12:06:17.920Z,19.92
2018-03-24T12:08:45.944Z,18.75
2018-03-24T12:11:13.406Z,16.99
2018-03-24T12:13:40.870Z,16.68
2018-03-24T12:16:08.620Z,17.37
2018-03-24T12:18:36.090Z,20.13
2018-03-24T12:21:03.554Z,20.42
2018-03-24T12:23:31.634Z,18.74
2018-03-24T12:25:59.418Z,19.25
2018-03-24T12:28:27.606Z,21.30
2018-03-24T12:30:55.529Z,22.45
2018-03-24T12:33:22.991Z,21.07
2018-03-24T12:35:50.465Z,22.75
2018-03-24T12:38:18.219Z,19.37
2018-03-24T12:40:46.777Z,22.57
2018-03-24T12:43:14.237Z,20.97
2018-03-24T12:45:42.148Z,18.21
2018-03-24T12:48:09.607Z,20.83
2018-03-24T12:50:37.080Z,23.18
2018-03-24T12:53:04.818Z,23.09
2018-03-24T12:55:32.282Z,19.95
2018-03-24T12:57:59.758Z,20.64
2018-03-24T13:00:27.530Z,23.34
2018-03-24T13:02:54.993Z,22.78
2018-03-24T13:05:22.445Z,23.28
2018-03-24T13:07:50.176Z,23.64
2018-03-24T13:10:17.642Z,22.72
2018-03-24T13:12:45.102Z,22.72
2018-03-24T13:15:12.883Z,20.91
2018-03-24T13:17:40.358Z,19.66
2018-03-24T13:20:07.820Z,20.80
2018-03-24T13:22:35.630Z,20.67
2018-03-24T13:25:03.094Z,22.49
2018-03-24T13:27:30.561Z,22.31
2018-03-24T13:29:58.262Z,22.99
2018-03-24T13:32:25.727Z,23.69
2018-03-24T13:34:53.189Z,22.19
2018-03-24T13:37:20.951Z,21.82
2018-03-24T13:39:48.413Z,23.32
2018-03-24T13:42:16.253Z,24.13
2018-03-24T13:44:43.994Z,20.98
2018-03-24T13:47:11.457Z,22.73
2018-03-24T13:49:38.929Z,22.72
2018-03-24T13:52:06.629Z,24.77
2018-03-24T13:54:34.100Z,25.34
2018-03-24T13:57:01.562Z,25.21
2018-03-24T13:59:29.370Z,21.80
2018-03-24T14:01:56.831Z,21.59
2018-03-24T14:04:24.295Z,22.45
2018-03-24T14:06:52.087Z,20.30
2018-03-24T14:09:19.550Z,23.21
2018-03-24T14:11:47.010Z,20.52
2018-03-24T14:14:15.000Z,23.36
2018-03-24T14:16:42.466Z,24.48
2018-03-24T14:19:09.928Z,23.04
2018-03-24T14:21:38.051Z,20.25
2018-03-24T14:24:05.516Z,20.76
2018-03-24T14:26:32.972Z,23.57
2018-03-24T14:29:01.339Z,24.27
2018-03-24T14:31:28.827Z,23.11
2018-03-24T14:33:56.283Z,22.89
2018-03-24T14:36:23.955Z,24.37
2018-03-24T14:38:51.418Z,24.22
2018-03-24T14:41:18.881Z,24.83
2018-03-24T14:43:48.513Z,22.09
2018-03-24T14:46:15.981Z,24.34
2018-03-24T14:48:43.467Z,21.36
2018-03-24T14:51:11.201Z,23.93
2018-03-24T14:53:38.668Z,23.59
2018-03-24T14:56:06.135Z,21.82
2018-03-24T14:58:34.204Z,23.67
2018-03-24T15:01:01.678Z,22.61
2018-03-24T15:03:29.158Z,22.93
2018-03-24T15:05:56.878Z,22.01
2018-03-24T15:08:24.356Z,20.23
2018-03-24T15:10:51.826Z,18.60
2018-03-24T15:13:19.870Z,18.68
2018-03-24T15:15:47.335Z,20.09
2018-03-24T15:18:14.804Z,23.81
2018-03-24T15:20:42.560Z,23.11
2018-03-24T15:23:10.022Z,23.39
2018-03-24T15:25:37.474Z,24.88
2018-03-24T15:28:05.241Z,24.89
2018-03-24T15:33:48.705Z,22.63
2018-03-24T15:36:27.826Z,21.77
2018-03-24T15:38:55.613Z,23.98
2018-03-24T15:41:23.075Z,21.84
2018-03-24T15:43:50.921Z,22.56
2018-03-24T15:46:18.922Z,23.44
2018-03-24T15:48:46.381Z,23.54
2018-03-24T15:51:13.856Z,24.37
2018-03-24T15:53:41.596Z,22.87
2018-03-24T15:56:09.108Z,21.86
2018-03-24T15:58:36.537Z,20.95
2018-03-24T16:01:04.609Z,21.59
2018-03-24T16:03:32.078Z,19.96
2018-03-24T16:05:59.545Z,20.23
2018-03-24T16:08:27.324Z,19.19
2018-03-24T16:10:54.786Z,21.68
2018-03-24T16:13:22.254Z,22.06
2018-03-24T16:15:50.012Z,21.70
2018-03-24T16:18:17.503Z,19.80
2018-03-24T16:20:44.966Z,20.10
2018-03-24T16:23:12.670Z,20.92
2018-03-24T16:25:40.153Z,19.92
2018-03-24T16:28:07.637Z,20.40
2018-03-24T16:30:35.660Z,20.81
2018-03-24T16:33:03.127Z,20.58
2018-03-24T16:35:30.593Z,20.16
2018-03-24T16:37:58.365Z,20.97
2018-03-24T16:40:25.829Z,19.98
2018-03-24T16:42:53.299Z,18.59
2018-03-24T16:45:21.646Z,18.88
2018-03-24T16:47:49.113Z,17.85
2018-03-24T16:50:16.596Z,19.78
2018-03-24T16:52:44.327Z,17.45
2018-03-24T16:55:11.828Z,18.70
2018-03-24T16:57:39.309Z,18.08
2018-03-24T17:00:07.025Z,17.90
2018-03-24T17:02:34.498Z,18.08
2018-03-24T17:05:01.962Z,18.10
2018-03-24T17:07:29.757Z,17.12
2018-03-24T17:09:58.018Z,17.34
2018-03-24T17:12:25.486Z,16.78
2018-03-24T17:14:53.317Z,16.97
2018-03-24T17:17:20.772Z,15.60
2018-03-24T17:19:48.300Z,15.07
2018-03-24T17:22:16.312Z,14.96
2018-03-24T17:24:43.777Z,14.75
2018-03-24T17:27:11.234Z,14.50
2018-03-24T17:29:38.999Z,15.60
2018-03-24T17:32:06.471Z,15.52
2018-03-24T17:34:33.926Z,15.34
2018-03-24T17:37:01.671Z,14.98
2018-03-24T17:39:29.166Z,14.95
2018-03-24T17:41:56.640Z,15.06
2018-03-24T17:44:24.497Z,14.91
2018-03-24T17:46:52.246Z,14.72
2018-03-24T17:49:19.705Z,13.98
2018-03-24T17:51:47.710Z,14.12
2018-03-24T17:54:15.258Z,13.88
2018-03-24T17:56:42.724Z,14.49
2018-03-24T17:59:10.652Z,14.81
2018-03-24T18:01:38.238Z,15.24
2018-03-24T18:04:05.810Z,14.12
2018-03-24T18:06:33.674Z,14.00
2018-03-24T18:09:01.142Z,14.10
2018-03-24T18:11:28.614Z,14.39
2018-03-24T18:13:56.648Z,14.01
2018-03-24T18:16:24.117Z,13.85
2018-03-24T18:18:51.577Z,14.43
2018-03-24T18:21:19.657Z,14.12
2018-03-24T18:23:47.128Z,13.68
2018-03-24T18:26:14.598Z,14.17
2018-03-24T18:28:42.957Z,13.79
2018-03-24T18:31:10.420Z,14.05
2018-03-24T18:33:37.886Z,13.57
2018-03-24T18:36:06.294Z,13.22
2018-03-24T18:38:33.766Z,13.28
2018-03-24T18:41:01.238Z,14.00
2018-03-24T18:43:28.938Z,13.90
2018-03-24T18:45:56.402Z,13.26
2018-03-24T18:48:24.857Z,13.13
2018-03-24T18:50:52.552Z,13.21
2018-03-24T18:53:20.009Z,12.88
2018-03-24T18:55:47.474Z,13.04
2018-03-24T18:58:15.501Z,13.19
2018-03-24T19:00:42.961Z,13.04
2018-03-24T19:03:10.425Z,13.15
2018-03-24T19:05:38.842Z,13.21
2018-03-24T19:08:06.342Z,12.39
2018-03-24T19:10:33.826Z,13.00
2018-03-24T19:13:01.526Z,13.55
2018-03-24T19:15:29.001Z,12.47
2018-03-24T19:17:56.469Z,12.97
2018-03-24T19:20:24.236Z,13.01
2018-03-24T19:22:51.703Z,13.01
2018-03-24T19:25:19.161Z,12.91
2018-03-24T19:27:46.891Z,12.12
2018-03-24T19:30:14.353Z,12.37
2018-03-24T19:32:41.824Z,12.53
2018-03-24T19:35:09.681Z,12.37
2018-03-24T19:37:37.154Z,12.17
2018-03-24T19:40:04.613Z,12.16
2018-03-24T19:42:32.289Z,12.35
2018-03-24T19:44:59.752Z,11.81
2018-03-24T19:47:27.246Z,12.28
2018-03-24T19:49:55.574Z,12.65
2018-03-24T19:52:23.038Z,12.23
2018-03-24T19:54:50.505Z,12.24
2018-03-24T19:57:18.271Z,12.31
2018-03-24T19:59:45.730Z,12.22
2018-03-24T20:02:13.210Z,12.49
2018-03-24T20:04:40.955Z,12.24
2018-03-24T20:07:08.415Z,12.05
2018-03-24T20:09:35.892Z,12.43
2018-03-24T20:12:03.634Z,12.36
2018-03-24T20:14:31.094Z,12.11
2018-03-24T20:16:58.562Z,11.62
2018-03-24T20:19:26.332Z,11.75
2018-03-24T20:21:53.809Z,12.03
2018-03-24T20:24:21.288Z,11.59
2018-03-24T20:26:49.017Z,12.09
2018-03-24T20:29:16.527Z,11.94
2018-03-24T20:31:43.998Z,11.57
2018-03-24T20:34:12.019Z,12.11
2018-03-24T20:36:39.482Z,11.87
2018-03-24T20:39:06.944Z,12.07
2018-03-24T20:41:34.777Z,11.47
2018-03-24T20:44:02.240Z,11.41
2018-03-24T20:46:29.699Z,10.68
2018-03-24T20:48:57.692Z,11.19
2018-03-24T20:51:26.793Z,11.72
2018-03-24T20:53:54.253Z,11.54
2018-03-24T20:56:22.220Z,11.88
2018-03-24T20:58:49.686Z,12.55
2018-03-24T21:01:17.156Z,11.55
2018-03-24T21:03:45.212Z,11.61
2018-03-24T21:06:12.701Z,11.45
2018-03-24T21:08:40.156Z,11.52
2018-03-24T21:11:07.897Z,11.54
2018-03-24T21:13:35.353Z,11.87
2018-03-24T21:16:02.820Z,11.32
2018-03-24T21:18:30.593Z,11.32
2018-03-24T21:20:58.057Z,11.79
2018-03-24T21:23:25.523Z,11.66
2018-03-24T21:25:53.270Z,12.32
2018-03-24T21:28:20.737Z,12.03
2018-03-24T21:30:48.215Z,11.69
2018-03-24T21:33:15.906Z,11.76
2018-03-24T21:35:43.369Z,10.99
2018-03-24T21:38:10.834Z,10.98
2018-03-24T21:40:38.655Z,11.44
2018-03-24T21:43:06.114Z,11.46
2018-03-24T21:45:33.568Z,11.00
2018-03-24T21:48:01.333Z,11.88
2018-03-24T21:50:28.806Z,11.49
2018-03-24T21:52:57.253Z,10.61
2018-03-24T21:55:25.277Z,11.11
2018-03-24T21:57:52.739Z,11.47
2018-03-24T22:00:20.201Z,11.29
2018-03-24T22:02:47.932Z,11.59
2018-03-24T22:05:15.401Z,11.97
2018-03-24T22:07:42.882Z,11.83
2018-03-24T22:10:10.621Z,10.72
2018-03-24T22:12:38.093Z,11.41
2018-03-24T22:15:05.558Z,11.68
2018-03-24T22:17:33.310Z,10.79
2018-03-24T22:20:00.783Z,10.90
2018-03-24T22:22:28.257Z,10.46
2018-03-24T22:24:56.312Z,11.53
2018-03-24T22:27:23.769Z,11.17
2018-03-24T22:29:51.235Z,11.44
2018-03-24T22:32:19.297Z,10.73
2018-03-24T22:34:46.774Z,11.29
2018-03-24T22:37:14.242Z,11.10
2018-03-24T22:39:42.319Z,10.75
2018-03-24T22:42:09.784Z,11.07
2018-03-24T22:44:37.240Z,10.97
2018-03-24T22:47:04.953Z,11.24
2018-03-24T22:49:32.421Z,11.29
2018-03-24T22:51:59.884Z,11.29
2018-03-24T22:54:28.614Z,11.50
2018-03-24T22:56:56.082Z,10.61
2018-03-24T22:59:23.541Z,10.90
2018-03-24T23:01:51.289Z,11.28
2018-03-24T23:04:18.745Z,10.62
2018-03-24T23:06:46.766Z,10.19
2018-03-24T23:09:14.591Z,10.88
2018-03-24T23:11:42.056Z,11.62
2018-03-24T23:14:09.507Z,11.08
2018-03-24T23:16:37.272Z,11.09
2018-03-24T23:19:04.743Z,10.94
2018-03-24T23:21:32.201Z,10.87
2018-03-24T23:23:59.960Z,10.88
2018-03-24T23:26:27.424Z,11.10
2018-03-24T23:28:54.897Z,11.25
2018-03-24T23:31:22.642Z,10.83
2018-03-24T23:33:50.108Z,10.91
2018-03-24T23:36:17.570Z,10.84
2018-03-24T23:38:45.339Z,10.88
2018-03-24T23:41:12.801Z,10.85
2018-03-24T23:43:40.296Z,10.97
2018-03-24T23:46:08.020Z,10.88
2018-03-24T23:48:35.476Z,10.59
2018-03-24T23:51:02.944Z,10.97
2018-03-24T23:53:30.705Z,10.63
2018-03-24T23:55:58.856Z,10.73
2018-03-24T23:58:26.313Z,10.61
